sensor_id;sensor_type;location;lat;lon;timestamp;temperature;humidity
51950;DHT22;37974;53.218;6.640;2023-01-05T09:09:24;9.10;99.90
51950;DHT22;37974;53.218;6.640;2023-01-05T09:16:19;9.20;99.90
51950;DHT22;37974;53.218;6.640;2023-01-05T15:32:59;9.10;99.90
51950;DHT22;37974;53.218;6.640;2023-01-05T17:44:09;8.70;99.90
51950;DHT22;37974;53.218;6.640;2023-01-05T17:46:57;8.60;99.90
51950;DHT22;37974;53.218;6.640;2023-01-05T17:49:45;8.70;99.90
51950;DHT22;37974;53.218;6.640;2023-01-05T17:52:14;8.60;99.90
51950;DHT22;37974;53.218;6.640;2023-01-05T17:55:23;8.60;99.90
51950;DHT22;37974;53.218;6.640;2023-01-05T17:58:00;8.70;99.90
51950;DHT22;37974;53.218;6.640;2023-01-05T18:00:51;8.50;99.90
51950;DHT22;37974;53.218;6.640;2023-01-05T18:03:46;8.70;99.90
51950;DHT22;37974;53.218;6.640;2023-01-05T18:06:49;8.70;99.90
51950;DHT22;37974;53.218;6.640;2023-01-05T18:09:18;8.60;99.90
51950;DHT22;37974;53.218;6.640;2023-01-05T18:11:51;8.60;99.90
51950;DHT22;37974;53.218;6.640;2023-01-05T18:14:20;8.70;99.90
51950;DHT22;37974;53.218;6.640;2023-01-05T18:16:58;8.70;99.90
51950;DHT22;37974;53.218;6.640;2023-01-05T18:19:32;8.70;99.90
51950;DHT22;37974;53.218;6.640;2023-01-05T18:22:03;8.70;99.90
51950;DHT22;37974;53.218;6.640;2023-01-05T18:24:54;8.70;99.90
51950;DHT22;37974;53.218;6.640;2023-01-05T18:27:34;8.70;99.90
51950;DHT22;37974;53.218;6.640;2023-01-05T18:30:02;8.80;99.90
51950;DHT22;37974;53.218;6.640;2023-01-05T18:32:31;8.80;99.90
51950;DHT22;37974;53.218;6.640;2023-01-05T18:39:20;8.50;99.90
51950;DHT22;37974;53.218;6.640;2023-01-05T18:41:50;8.70;99.90
51950;DHT22;37974;53.218;6.640;2023-01-05T18:44:39;8.70;99.90
51950;DHT22;37974;53.218;6.640;2023-01-05T18:47:05;8.80;99.90
51950;DHT22;37974;53.218;6.640;2023-01-05T18:52:50;8.70;99.90
51950;DHT22;37974;53.218;6.640;2023-01-05T18:59:36;8.70;99.90
51950;DHT22;37974;53.218;6.640;2023-01-05T19:05:24;8.20;99.90
51950;DHT22;37974;53.218;6.640;2023-01-05T19:08:11;8.60;99.90
51950;DHT22;37974;53.218;6.640;2023-01-05T19:11:16;8.70;99.90
51950;DHT22;37974;53.218;6.640;2023-01-05T19:14:09;8.70;99.90
51950;DHT22;37974;53.218;6.640;2023-01-05T19:16:48;8.80;99.90
51950;DHT22;37974;53.218;6.640;2023-01-05T19:19:35;8.70;99.90
51950;DHT22;37974;53.218;6.640;2023-01-05T19:22:06;8.80;99.90
51950;DHT22;37974;53.218;6.640;2023-01-05T19:24:42;8.70;99.90
51950;DHT22;37974;53.218;6.640;2023-01-05T19:27:39;8.70;99.90
51950;DHT22;37974;53.218;6.640;2023-01-05T19:30:17;8.80;99.90
51950;DHT22;37974;53.218;6.640;2023-01-05T19:33:12;8.70;99.90
51950;DHT22;37974;53.218;6.640;2023-01-05T19:35:40;8.80;99.90
51950;DHT22;37974;53.218;6.640;2023-01-05T19:41:19;8.70;99.90
51950;DHT22;37974;53.218;6.640;2023-01-05T19:43:56;8.70;99.90
51950;DHT22;37974;53.218;6.640;2023-01-05T19:46:37;8.70;99.90
51950;DHT22;37974;53.218;6.640;2023-01-05T19:49:20;8.80;99.90
51950;DHT22;37974;53.218;6.640;2023-01-05T19:51:46;8.70;99.90
51950;DHT22;37974;53.218;6.640;2023-01-05T19:54:18;8.80;99.90
51950;DHT22;37974;53.218;6.640;2023-01-05T19:56:48;8.70;99.90
51950;DHT22;37974;53.218;6.640;2023-01-05T19:59:18;8.70;99.90
51950;DHT22;37974;53.218;6.640;2023-01-05T20:01:46;8.70;99.90
51950;DHT22;37974;53.218;6.640;2023-01-05T20:04:13;8.70;99.90
51950;DHT22;37974;53.218;6.640;2023-01-05T20:06:43;8.80;99.90
51950;DHT22;37974;53.218;6.640;2023-01-05T20:09:13;8.90;99.90
51950;DHT22;37974;53.218;6.640;2023-01-05T20:11:57;8.80;99.90
51950;DHT22;37974;53.218;6.640;2023-01-05T20:14:27;8.90;99.90
51950;DHT22;37974;53.218;6.640;2023-01-05T20:17:04;8.80;99.90
51950;DHT22;37974;53.218;6.640;2023-01-05T20:19:34;8.90;99.90
51950;DHT22;37974;53.218;6.640;2023-01-05T20:22:01;8.80;99.90
51950;DHT22;37974;53.218;6.640;2023-01-05T20:24:29;8.80;99.90
51950;DHT22;37974;53.218;6.640;2023-01-05T20:26:58;8.80;99.90
51950;DHT22;37974;53.218;6.640;2023-01-05T20:29:25;8.80;99.90
51950;DHT22;37974;53.218;6.640;2023-01-05T20:31:55;8.90;99.90
51950;DHT22;37974;53.218;6.640;2023-01-05T20:34:23;8.90;99.90
51950;DHT22;37974;53.218;6.640;2023-01-05T20:36:54;9.00;99.90
51950;DHT22;37974;53.218;6.640;2023-01-05T20:39:21;9.30;99.90
51950;DHT22;37974;53.218;6.640;2023-01-05T20:41:51;8.90;99.90
51950;DHT22;37974;53.218;6.640;2023-01-05T20:44:23;9.00;99.90
51950;DHT22;37974;53.218;6.640;2023-01-05T20:46:59;9.10;99.90
51950;DHT22;37974;53.218;6.640;2023-01-05T20:49:37;8.90;99.90
51950;DHT22;37974;53.218;6.640;2023-01-05T20:52:23;9.00;99.90
51950;DHT22;37974;53.218;6.640;2023-01-05T20:59:02;9.10;99.90
51950;DHT22;37974;53.218;6.640;2023-01-05T21:01:41;9.20;99.90
51950;DHT22;37974;53.218;6.640;2023-01-05T21:04:23;9.10;99.90
51950;DHT22;37974;53.218;6.640;2023-01-05T21:06:56;9.10;99.90
51950;DHT22;37974;53.218;6.640;2023-01-05T21:09:30;9.10;99.90
51950;DHT22;37974;53.218;6.640;2023-01-05T21:12:20;9.20;99.90
51950;DHT22;37974;53.218;6.640;2023-01-05T21:15:15;9.10;99.90
51950;DHT22;37974;53.218;6.640;2023-01-05T21:22:25;8.80;99.90
51950;DHT22;37974;53.218;6.640;2023-01-05T21:25:55;9.30;99.90
51950;DHT22;37974;53.218;6.640;2023-01-05T21:39:13;9.40;99.90
51950;DHT22;37974;53.218;6.640;2023-01-05T21:42:09;9.30;99.90
51950;DHT22;37974;53.218;6.640;2023-01-05T21:52:02;9.30;99.90
51950;DHT22;37974;53.218;6.640;2023-01-05T21:55:15;9.50;99.90
51950;DHT22;37974;53.218;6.640;2023-01-05T21:58:10;9.50;99.90
51950;DHT22;37974;53.218;6.640;2023-01-05T22:01:03;9.40;99.90
51950;DHT22;37974;53.218;6.640;2023-01-05T22:04:15;9.50;99.90
51950;DHT22;37974;53.218;6.640;2023-01-05T22:07:27;9.60;99.90
51950;DHT22;37974;53.218;6.640;2023-01-05T22:10:51;9.40;99.90
51950;DHT22;37974;53.218;6.640;2023-01-05T22:13:18;9.60;99.90
51950;DHT22;37974;53.218;6.640;2023-01-05T22:15:46;9.60;99.90
51950;DHT22;37974;53.218;6.640;2023-01-05T22:18:43;9.70;99.90
51950;DHT22;37974;53.218;6.640;2023-01-05T22:21:19;9.60;99.90
51950;DHT22;37974;53.218;6.640;2023-01-05T22:24:06;9.70;99.90
51950;DHT22;37974;53.218;6.640;2023-01-05T22:27:39;9.60;99.90
51950;DHT22;37974;53.218;6.640;2023-01-05T22:30:27;9.60;99.90
51950;DHT22;37974;53.218;6.640;2023-01-05T22:33:11;9.80;99.90
51950;DHT22;37974;53.218;6.640;2023-01-05T22:36:31;9.60;99.90
51950;DHT22;37974;53.218;6.640;2023-01-05T22:39:15;9.80;99.90
51950;DHT22;37974;53.218;6.640;2023-01-05T22:41:55;9.60;99.90
51950;DHT22;37974;53.218;6.640;2023-01-05T22:45:06;9.80;99.90
51950;DHT22;37974;53.218;6.640;2023-01-05T22:48:40;9.70;99.90
51950;DHT22;37974;53.218;6.640;2023-01-05T22:51:56;9.90;99.90
51950;DHT22;37974;53.218;6.640;2023-01-05T22:54:32;9.90;99.90
51950;DHT22;37974;53.218;6.640;2023-01-05T22:57:34;9.70;99.90
51950;DHT22;37974;53.218;6.640;2023-01-05T23:00:34;9.80;99.90
51950;DHT22;37974;53.218;6.640;2023-01-05T23:04:10;9.70;99.90
51950;DHT22;37974;53.218;6.640;2023-01-05T23:07:03;9.80;99.90
51950;DHT22;37974;53.218;6.640;2023-01-05T23:10:35;9.30;99.90
51950;DHT22;37974;53.218;6.640;2023-01-05T23:13:34;9.20;99.90
51950;DHT22;37974;53.218;6.640;2023-01-05T23:20:10;10.00;99.90
51950;DHT22;37974;53.218;6.640;2023-01-05T23:28:25;10.30;99.90
51950;DHT22;37974;53.218;6.640;2023-01-05T23:33:43;10.00;99.90
51950;DHT22;37974;53.218;6.640;2023-01-05T23:36:30;9.80;99.90
51950;DHT22;37974;53.218;6.640;2023-01-05T23:42:10;9.80;99.90
51950;DHT22;37974;53.218;6.640;2023-01-05T23:45:16;9.50;99.90
51950;DHT22;37974;53.218;6.640;2023-01-05T23:48:10;10.00;99.90
51950;DHT22;37974;53.218;6.640;2023-01-05T23:51:30;9.30;99.90
51950;DHT22;37974;53.218;6.640;2023-01-05T23:53:56;10.00;99.90
51950;DHT22;37974;53.218;6.640;2023-01-05T23:56:48;9.60;99.90
51950;DHT22;37974;53.218;6.640;2023-01-05T23:59:37;9.90;99.90
